createdAt,value
2022-08-03T04:00:32.473Z,44.00
2022-08-03T04:01:32.358Z,48.00
2022-08-03T04:02:32.365Z,52.00
2022-08-03T04:03:32.399Z,56.00
2022-08-03T04:04:32.321Z,60.00
2022-08-03T04:05:32.307Z,68.00
2022-08-03T04:06:32.305Z,68.00
2022-08-03T04:07:32.299Z,72.00
2022-08-03T04:08:32.279Z,80.00
2022-08-03T04:09:32.264Z,84.00
2022-08-03T04:10:32.253Z,88.00
2022-08-03T04:11:37.259Z,96.00
2022-08-03T04:12:32.381Z,100.00
2022-08-03T04:13:32.239Z,104.00
2022-08-03T04:14:32.217Z,108.00
2022-08-03T04:15:32.257Z,116.00
2022-08-03T04:16:32.193Z,124.00
2022-08-03T04:17:32.248Z,128.00
2022-08-03T04:18:32.192Z,132.00
2022-08-03T04:19:32.154Z,136.00
2022-08-03T04:20:32.175Z,148.00
2022-08-03T04:21:32.147Z,152.00
2022-08-03T04:22:37.170Z,160.00
2022-08-03T04:23:32.121Z,164.00
2022-08-03T04:24:32.105Z,168.00
2022-08-03T04:25:32.091Z,172.00
2022-08-03T04:26:32.103Z,180.00
2022-08-03T04:27:32.087Z,184.00
2022-08-03T04:28:32.197Z,192.00
2022-08-03T04:29:32.048Z,200.00
2022-08-03T04:30:32.053Z,204.00
2022-08-03T04:31:32.056Z,208.00
2022-08-03T04:32:32.041Z,220.00
2022-08-03T04:33:37.024Z,224.00
2022-08-03T04:34:32.109Z,228.00
2022-08-03T04:36:01.956Z,236.00
2022-08-03T04:36:32.981Z,240.00
2022-08-03T04:37:32.171Z,248.00
2022-08-03T04:38:31.946Z,252.00
2022-08-03T04:39:31.941Z,256.00
2022-08-03T04:40:31.945Z,264.00
2022-08-03T04:41:31.907Z,272.00
2022-08-03T04:42:31.918Z,272.00
2022-08-03T04:43:31.898Z,280.00
2022-08-03T04:44:37.040Z,288.00
2022-08-03T04:45:31.874Z,296.00
2022-08-03T04:46:31.860Z,300.00
2022-08-03T04:47:31.870Z,304.00
2022-08-03T04:48:31.868Z,312.00
2022-08-03T04:49:31.917Z,316.00
2022-08-03T04:50:31.810Z,324.00
2022-08-03T04:51:31.830Z,328.00
2022-08-03T04:52:31.843Z,336.00
2022-08-03T04:53:31.777Z,344.00
2022-08-03T04:54:31.768Z,348.00
2022-08-03T04:55:36.886Z,356.00
2022-08-03T04:56:31.769Z,360.00
2022-08-03T04:57:31.757Z,364.00
2022-08-03T04:58:31.793Z,368.00
2022-08-03T04:59:31.721Z,376.00
2022-08-03T05:00:31.705Z,384.00
2022-08-03T05:01:31.796Z,392.00
2022-08-03T05:02:31.814Z,396.00
2022-08-03T05:03:31.680Z,392.00
2022-08-03T05:04:31.673Z,412.00
2022-08-03T05:05:49.731Z,392.00
2022-08-03T05:06:47.812Z,420.00
2022-08-03T05:07:36.455Z,428.00
2022-08-03T05:08:31.622Z,428.00
2022-08-03T05:09:45.997Z,436.00
2022-08-03T05:10:32.589Z,440.00
2022-08-03T05:11:31.578Z,448.00
2022-08-03T05:12:33.195Z,452.00
2022-08-03T05:13:31.563Z,456.00
2022-08-03T05:14:31.559Z,464.00
2022-08-03T05:15:31.556Z,472.00
2022-08-03T05:16:31.571Z,480.00
2022-08-03T05:17:36.562Z,484.00
2022-08-03T05:18:31.497Z,492.00
2022-08-03T05:19:31.498Z,500.00
2022-08-03T05:20:31.511Z,512.00
2022-08-03T05:21:51.959Z,524.00
2022-08-03T05:22:32.487Z,528.00
2022-08-03T05:23:31.507Z,544.00
2022-08-03T05:24:31.434Z,560.00
2022-08-03T05:25:31.429Z,584.00
2022-08-03T05:26:31.507Z,604.00
2022-08-03T05:27:31.439Z,628.00
2022-08-03T05:28:36.422Z,656.00
2022-08-03T05:29:31.377Z,724.00
2022-08-03T05:30:34.180Z,732.00
2022-08-03T05:31:31.358Z,696.00
2022-08-03T05:32:31.374Z,712.00
2022-08-03T05:33:31.338Z,708.00
2022-08-03T05:34:31.322Z,728.00
2022-08-03T05:35:56.072Z,764.00
2022-08-03T05:36:32.376Z,744.00
2022-08-03T05:37:31.317Z,716.00
2022-08-03T05:38:33.911Z,732.00
2022-08-03T05:39:36.297Z,708.00
2022-08-03T05:40:31.263Z,664.00
2022-08-03T05:41:36.929Z,644.00
2022-08-03T05:42:32.247Z,632.00
2022-08-03T05:43:31.222Z,632.00
2022-08-03T05:44:31.217Z,632.00
2022-08-03T05:45:31.206Z,644.00
2022-08-03T05:46:31.188Z,648.00
2022-08-03T05:47:31.202Z,652.00
2022-08-03T05:48:31.170Z,656.00
2022-08-03T05:49:31.232Z,660.00
2022-08-03T05:50:39.853Z,680.00
2022-08-03T05:51:32.145Z,692.00
2022-08-03T05:52:31.161Z,700.00
2022-08-03T05:53:31.110Z,708.00
2022-08-03T05:54:56.374Z,720.00
2022-08-03T05:55:32.095Z,748.00
2022-08-03T05:56:31.076Z,824.00
2022-08-03T05:57:31.082Z,884.00
2022-08-03T05:58:31.057Z,880.00
2022-08-03T05:59:38.700Z,860.00
2022-08-03T06:00:32.071Z,764.00
2022-08-03T06:01:36.097Z,724.00
2022-08-03T06:02:31.083Z,708.00
2022-08-03T06:03:31.031Z,692.00
2022-08-03T06:04:31.006Z,692.00
2022-08-03T06:05:31.025Z,668.00
2022-08-03T06:06:32.475Z,676.00
2022-08-03T06:07:31.003Z,724.00
2022-08-03T06:08:30.957Z,728.00
2022-08-03T06:09:31.818Z,744.00
2022-08-03T06:10:37.209Z,760.00
2022-08-03T06:11:31.916Z,780.00
2022-08-03T06:12:35.983Z,780.00
2022-08-03T06:13:30.897Z,780.00
2022-08-03T06:14:30.884Z,776.00
2022-08-03T06:15:30.876Z,780.00
2022-08-03T06:16:30.882Z,796.00
2022-08-03T06:17:37.465Z,800.00
2022-08-03T06:18:31.855Z,804.00
2022-08-03T06:19:30.847Z,812.00
2022-08-03T06:20:30.902Z,816.00
2022-08-03T06:21:30.807Z,828.00
2022-08-03T06:22:30.794Z,852.00
2022-08-03T06:23:53.873Z,900.00
2022-08-03T06:24:31.772Z,908.00
2022-08-03T06:25:30.783Z,956.00
2022-08-03T06:26:30.772Z,1020.00
2022-08-03T06:27:37.132Z,984.00
2022-08-03T06:28:51.354Z,980.00
2022-08-03T06:29:31.733Z,1036.00
2022-08-03T06:30:30.710Z,1088.00
2022-08-03T06:31:32.963Z,1144.00
2022-08-03T06:32:30.682Z,1212.00
2022-08-03T06:34:30.588Z,1216.00
2022-08-03T06:34:36.681Z,1280.00
2022-08-03T06:35:30.648Z,1468.00
2022-08-03T06:36:30.647Z,2188.00
2022-08-03T06:37:30.631Z,2060.00
2022-08-03T06:38:30.659Z,1548.00
2022-08-03T06:39:30.655Z,1608.00
2022-08-03T06:40:30.606Z,1652.00
2022-08-03T06:41:30.596Z,1812.00
2022-08-03T06:42:31.571Z,1684.00
2022-08-03T06:43:30.587Z,1588.00
2022-08-03T06:44:31.562Z,1584.00
2022-08-03T06:45:35.561Z,1620.00
2022-08-03T06:46:30.533Z,1648.00
2022-08-03T06:47:30.527Z,1684.00
2022-08-03T06:48:30.575Z,1476.00
2022-08-03T06:49:30.537Z,1368.00
2022-08-03T06:50:30.481Z,1292.00
2022-08-03T06:52:03.112Z,1116.00
2022-08-03T06:52:37.948Z,1120.00
2022-08-03T06:53:31.493Z,1132.00
2022-08-03T06:54:33.352Z,1140.00
2022-08-03T06:55:30.427Z,1144.00
2022-08-03T06:56:35.448Z,1156.00
2022-08-03T06:57:30.411Z,1160.00
2022-08-03T06:58:30.413Z,1284.00
2022-08-03T07:00:09.005Z,1308.00
2022-08-03T07:00:31.372Z,1180.00
2022-08-03T07:01:30.479Z,1288.00
2022-08-03T07:02:30.378Z,1160.00
2022-08-03T07:03:30.353Z,1268.00
2022-08-03T07:04:30.326Z,1140.00
2022-08-03T07:05:30.335Z,1072.00
2022-08-03T07:06:30.307Z,1108.00
2022-08-03T07:07:35.322Z,1180.00
2022-08-03T07:08:33.461Z,1320.00
2022-08-03T07:09:30.311Z,1160.00
2022-08-03T07:10:30.265Z,1148.00
2022-08-03T07:11:30.254Z,1208.00
2022-08-03T07:12:30.383Z,1148.00
2022-08-03T07:13:30.248Z,1224.00
2022-08-03T07:14:30.232Z,1272.00
2022-08-03T07:15:53.999Z,1200.00
2022-08-03T07:16:31.201Z,1200.00
2022-08-03T07:17:30.743Z,1232.00
2022-08-03T07:18:35.250Z,1228.00
2022-08-03T07:19:30.174Z,1408.00
2022-08-03T07:20:32.611Z,1676.00
2022-08-03T07:21:30.146Z,1848.00
2022-08-03T07:22:30.147Z,1748.00
2022-08-03T07:23:30.122Z,1348.00
2022-08-03T07:24:30.117Z,1160.00
2022-08-03T07:25:30.114Z,1164.00
2022-08-03T07:26:30.090Z,1172.00
2022-08-03T07:27:30.089Z,1188.00
2022-08-03T07:28:30.067Z,1212.00
2022-08-03T07:29:35.091Z,1264.00
2022-08-03T07:30:30.042Z,1284.00
2022-08-03T07:31:34.391Z,1304.00
2022-08-03T07:32:30.018Z,1324.00
2022-08-03T07:33:30.022Z,1316.00
2022-08-03T07:34:30.032Z,1300.00
2022-08-03T07:35:29.994Z,1276.00
2022-08-03T07:36:30.027Z,1260.00
2022-08-03T07:37:29.976Z,1188.00
2022-08-03T07:38:29.953Z,1200.00
2022-08-03T07:39:29.955Z,1280.00
2022-08-03T07:40:34.954Z,1296.00
2022-08-03T07:41:29.932Z,1304.00
2022-08-03T07:42:29.924Z,1328.00
2022-08-03T07:43:29.906Z,1348.00
2022-08-03T07:44:29.928Z,1360.00
2022-08-03T07:45:29.927Z,1372.00
2022-08-03T07:46:29.877Z,1368.00
2022-08-03T07:47:35.443Z,1340.00
2022-08-03T07:48:30.850Z,1196.00
2022-08-03T07:49:29.934Z,1208.00
2022-08-03T07:50:29.832Z,1232.00
2022-08-03T07:51:34.839Z,1268.00
2022-08-03T07:52:29.802Z,1288.00
2022-08-03T07:53:29.793Z,1356.00
2022-08-03T07:54:29.842Z,1340.00
2022-08-03T07:55:29.802Z,1336.00
2022-08-03T07:56:29.762Z,1332.00
2022-08-03T07:57:29.760Z,1240.00
2022-08-03T07:58:29.786Z,1196.00
2022-08-03T07:59:29.727Z,1180.00
2022-08-03T08:00:30.724Z,1160.00
2022-08-03T08:01:29.843Z,1392.00
2022-08-03T08:02:34.726Z,1772.00
2022-08-03T08:03:29.705Z,1864.00
2022-08-03T08:04:30.709Z,1952.00
2022-08-03T08:05:29.675Z,1516.00
2022-08-03T08:06:29.667Z,1472.00
2022-08-03T08:07:29.639Z,1400.00
2022-08-03T08:08:29.629Z,1416.00
2022-08-03T08:09:29.638Z,1408.00
2022-08-03T08:10:29.610Z,1436.00
2022-08-03T08:11:29.604Z,1452.00
2022-08-03T08:12:29.595Z,1440.00
2022-08-03T08:13:34.597Z,1436.00
2022-08-03T08:14:29.633Z,1500.00
2022-08-03T08:15:29.608Z,1476.00
2022-08-03T08:16:29.552Z,1500.00
2022-08-03T08:17:29.557Z,1568.00
2022-08-03T08:18:29.567Z,1588.00
2022-08-03T08:19:29.533Z,1608.00
2022-08-03T08:20:31.437Z,1660.00
2022-08-03T08:21:53.593Z,1688.00
2022-08-03T08:22:31.441Z,1708.00
2022-08-03T08:23:41.698Z,1704.00
2022-08-03T08:24:35.478Z,1708.00
2022-08-03T08:25:29.464Z,1672.00
2022-08-03T08:26:29.433Z,1660.00
2022-08-03T08:28:31.106Z,1612.00
2022-08-03T08:28:33.753Z,1536.00
2022-08-03T08:29:29.421Z,1528.00
2022-08-03T08:30:29.438Z,1512.00
2022-08-03T08:31:29.389Z,1588.00
2022-08-03T08:32:29.400Z,1652.00
2022-08-03T08:33:48.083Z,1716.00
2022-08-03T08:34:30.346Z,1728.00
2022-08-03T08:35:34.381Z,1864.00
2022-08-03T08:36:29.327Z,1840.00
2022-08-03T08:37:29.318Z,1820.00
2022-08-03T08:38:29.308Z,1700.00
2022-08-03T08:39:29.292Z,1724.00
2022-08-03T08:40:29.320Z,1736.00
2022-08-03T08:41:32.096Z,1796.00
2022-08-03T08:42:29.258Z,3248.00
2022-08-03T08:43:29.277Z,1756.00
2022-08-03T08:44:29.238Z,1728.00
2022-08-03T08:45:29.269Z,1736.00
2022-08-03T08:46:34.239Z,1676.00
2022-08-03T08:47:29.210Z,1716.00
2022-08-03T08:48:30.194Z,1752.00
2022-08-03T08:49:29.278Z,1804.00
2022-08-03T08:50:29.280Z,1896.00
2022-08-03T08:51:50.577Z,1924.00
2022-08-03T08:52:32.171Z,2032.00
2022-08-03T08:53:29.172Z,2112.00
2022-08-03T08:54:29.125Z,2092.00
2022-08-03T08:55:29.128Z,2076.00
2022-08-03T08:56:29.139Z,3568.00
2022-08-03T08:57:42.969Z,2204.00
2022-08-03T08:58:30.082Z,1824.00
2022-08-03T08:59:48.741Z,1804.00
2022-08-03T09:00:30.096Z,1888.00
2022-08-03T09:01:29.133Z,1768.00
2022-08-03T09:02:29.038Z,1860.00
2022-08-03T09:03:30.036Z,1844.00
2022-08-03T09:04:29.037Z,1852.00
2022-08-03T09:05:55.047Z,1864.00
2022-08-03T09:06:29.998Z,1756.00
2022-08-03T09:07:28.989Z,1700.00
2022-08-03T09:08:34.018Z,1960.00
2022-08-03T09:10:10.875Z,7660.00
2022-08-03T09:10:29.981Z,8608.00
2022-08-03T09:12:00.961Z,7736.00
2022-08-03T09:12:41.612Z,15124.00
2022-08-03T09:13:29.921Z,3088.00
2022-08-03T09:14:33.666Z,5368.00
2022-08-03T09:15:29.913Z,4852.00
2022-08-03T09:16:28.947Z,1752.00
2022-08-03T09:17:28.881Z,1672.00
2022-08-03T09:18:30.520Z,1676.00
2022-08-03T09:19:33.878Z,1732.00
2022-08-03T09:20:28.865Z,2112.00
2022-08-03T09:21:33.251Z,7984.00
2022-08-03T09:22:29.825Z,5820.00
2022-08-03T09:23:59.016Z,1720.00
2022-08-03T09:24:41.127Z,1776.00
2022-08-03T09:25:29.821Z,1836.00
2022-08-03T09:26:28.878Z,1884.00
2022-08-03T09:27:28.767Z,1972.00
2022-08-03T09:29:00.204Z,5536.00
2022-08-03T09:29:29.790Z,9132.00
2022-08-03T09:30:35.206Z,4312.00
2022-08-03T09:31:28.847Z,2316.00
2022-08-03T09:32:28.716Z,1988.00
2022-08-03T09:33:35.939Z,2188.00
2022-08-03T09:34:29.706Z,9768.00
2022-08-03T09:35:51.598Z,13224.00
2022-08-03T09:36:29.674Z,12972.00
2022-08-03T09:38:12.272Z,18464.00
2022-08-03T09:38:29.660Z,24640.00
2022-08-03T09:39:40.759Z,11028.00
2022-08-03T09:40:29.665Z,7296.00
2022-08-03T09:41:33.641Z,6072.00
2022-08-03T09:42:28.633Z,4088.00
2022-08-03T09:43:28.676Z,5972.00
2022-08-03T09:44:28.584Z,7200.00
2022-08-03T09:45:28.610Z,7852.00
2022-08-03T09:46:28.566Z,9104.00
2022-08-03T09:47:28.578Z,3012.00
2022-08-03T09:48:28.554Z,3024.00
2022-08-03T09:49:28.562Z,3756.00
2022-08-03T09:50:28.544Z,5712.00
2022-08-03T09:52:17.965Z,5128.00
2022-08-03T09:52:37.665Z,4316.00
2022-08-03T09:53:29.494Z,3384.00
2022-08-03T09:54:33.506Z,2020.00
2022-08-03T09:56:32.754Z,2052.00
2022-08-03T09:56:36.217Z,2036.00
2022-08-03T09:57:29.489Z,2048.00
2022-08-03T09:58:28.431Z,1908.00
2022-08-03T09:59:28.422Z,1832.00
2022-08-03T10:00:28.458Z,1832.00
2022-08-03T10:01:28.446Z,1848.00
2022-08-03T10:02:28.458Z,1832.00
2022-08-03T10:03:28.382Z,1844.00
2022-08-03T10:04:28.409Z,1824.00
2022-08-03T10:05:28.400Z,1816.00
2022-08-03T10:06:29.173Z,2104.00
2022-08-03T10:07:33.373Z,1852.00
2022-08-03T10:08:28.368Z,1816.00
2022-08-03T10:09:28.348Z,1836.00
2022-08-03T10:10:29.594Z,1892.00
2022-08-03T10:11:28.382Z,1896.00
2022-08-03T10:12:28.299Z,1896.00
2022-08-03T10:13:28.282Z,1916.00
2022-08-03T10:14:28.305Z,2016.00
2022-08-03T10:16:21.712Z,2108.00
2022-08-03T10:16:29.240Z,15416.00
2022-08-03T10:17:28.244Z,22336.00
2022-08-03T10:18:28.222Z,4872.00
2022-08-03T10:19:28.216Z,2116.00
2022-08-03T10:20:33.243Z,2600.00
2022-08-03T10:21:28.213Z,1936.00
2022-08-03T10:22:28.756Z,1988.00
2022-08-03T10:23:33.159Z,1976.00
2022-08-03T10:24:29.176Z,2228.00
2022-08-03T10:25:33.297Z,2108.00
2022-08-03T10:26:29.138Z,2224.00
2022-08-03T10:27:28.142Z,2744.00
2022-08-03T10:28:28.118Z,2072.00
2022-08-03T10:29:28.138Z,2092.00
2022-08-03T10:30:28.093Z,2676.00
2022-08-03T10:31:28.090Z,2300.00
2022-08-03T10:32:28.080Z,2248.00
2022-08-03T10:33:50.869Z,9968.00
2022-08-03T10:34:29.143Z,17344.00
2022-08-03T10:35:28.081Z,18816.00
2022-08-03T10:36:28.209Z,2096.00
2022-08-03T10:37:28.032Z,2080.00
2022-08-03T10:38:28.011Z,2056.00
2022-08-03T10:39:28.061Z,2128.00
2022-08-03T10:40:51.113Z,2216.00
2022-08-03T10:41:28.991Z,2232.00
2022-08-03T10:42:28.070Z,2288.00
2022-08-03T10:43:27.997Z,2528.00
2022-08-03T10:44:27.981Z,3056.00
2022-08-03T10:45:27.959Z,2368.00
2022-08-03T10:46:32.949Z,2312.00
2022-08-03T10:47:27.931Z,2304.00
2022-08-03T10:48:27.937Z,4524.00
2022-08-03T10:49:34.640Z,2500.00
2022-08-03T10:50:28.943Z,2224.00
2022-08-03T10:51:27.893Z,3024.00
2022-08-03T10:52:31.899Z,2464.00
2022-08-03T10:53:28.962Z,2988.00
2022-08-03T10:54:27.844Z,2616.00
2022-08-03T10:55:27.895Z,7784.00
2022-08-03T10:56:35.463Z,9768.00
2022-08-03T10:57:28.846Z,5496.00
2022-08-03T10:58:30.835Z,9452.00
2022-08-03T10:59:32.835Z,7856.00
2022-08-03T11:00:27.990Z,7916.00
2022-08-03T11:01:27.780Z,4968.00
2022-08-03T11:02:28.754Z,8036.00
2022-08-03T11:03:27.772Z,20352.00
2022-08-03T11:04:27.893Z,16352.00
2022-08-03T11:05:27.737Z,18144.00
2022-08-03T11:06:27.713Z,3656.00
2022-08-03T11:07:28.701Z,4712.00
2022-08-03T11:08:27.715Z,4444.00
2022-08-03T11:09:27.693Z,5876.00
2022-08-03T11:10:27.703Z,15256.00
2022-08-03T11:11:27.649Z,36032.00
2022-08-03T11:12:32.834Z,55008.00
2022-08-03T11:13:27.653Z,65184.00
2022-08-03T11:14:27.677Z,52704.00
2022-08-03T11:15:27.658Z,31392.00
2022-08-03T11:16:27.641Z,20448.00
2022-08-03T11:17:27.590Z,2840.00
2022-08-03T11:18:27.622Z,2964.00
2022-08-03T11:19:27.754Z,3484.00
2022-08-03T11:20:27.611Z,21696.00
2022-08-03T11:21:30.370Z,23136.00
2022-08-03T11:22:27.550Z,68416.00
2022-08-03T11:24:04.780Z,40864.00
2022-08-03T11:24:28.513Z,28928.00
2022-08-03T11:25:54.098Z,105952.00
2022-08-03T11:26:28.551Z,105120.00
2022-08-03T11:27:27.522Z,105440.00
2022-08-03T11:28:27.471Z,100928.00
2022-08-03T11:29:27.606Z,92256.00
2022-08-03T11:30:27.577Z,78016.00
2022-08-03T11:31:48.880Z,72768.00
2022-08-03T11:32:28.519Z,82592.00
2022-08-03T11:33:27.457Z,96768.00
2022-08-03T11:34:27.433Z,106912.00
2022-08-03T11:35:27.450Z,80640.00
2022-08-03T11:36:32.036Z,16448.00
2022-08-03T11:37:33.155Z,16800.00
2022-08-03T11:38:33.390Z,6696.00
2022-08-03T11:39:27.355Z,4704.00
2022-08-03T11:40:27.418Z,8432.00
2022-08-03T11:41:27.367Z,16960.00
2022-08-03T11:42:27.335Z,4792.00
2022-08-03T11:43:30.813Z,6000.00
2022-08-03T11:44:27.318Z,4024.00
2022-08-03T11:45:27.343Z,5604.00
2022-08-03T11:46:28.686Z,2308.00
2022-08-03T11:47:27.278Z,4016.00
2022-08-03T11:48:27.379Z,3412.00
2022-08-03T11:49:32.384Z,9552.00
2022-08-03T11:50:27.277Z,25504.00
2022-08-03T11:51:27.242Z,5152.00
2022-08-03T11:52:28.731Z,23296.00
2022-08-03T11:53:27.217Z,9364.00
2022-08-03T11:54:27.221Z,5924.00
2022-08-03T11:55:30.582Z,118720.00
2022-08-03T11:56:27.211Z,92224.00
2022-08-03T11:59:01.263Z,9076.00
2022-08-03T11:59:10.876Z,113440.00
2022-08-03T11:59:28.160Z,101408.00
2022-08-03T12:00:32.185Z,76864.00
2022-08-03T12:01:27.156Z,105632.00
2022-08-03T12:02:27.149Z,108480.00
2022-08-03T12:03:27.169Z,110752.00
2022-08-03T12:04:27.173Z,109408.00
2022-08-03T12:05:27.195Z,106112.00
2022-08-03T12:06:27.086Z,100896.00
2022-08-03T12:08:03.173Z,98912.00
2022-08-03T12:08:28.095Z,101280.00
2022-08-03T12:09:27.060Z,101024.00
2022-08-03T12:10:27.071Z,105152.00
2022-08-03T12:11:32.095Z,106336.00
2022-08-03T12:12:27.022Z,107168.00
2022-08-03T12:14:44.751Z,107840.00
2022-08-03T12:14:50.074Z,107296.00
2022-08-03T12:15:28.129Z,107488.00
2022-08-03T12:16:27.040Z,105920.00
2022-08-03T12:17:27.003Z,104096.00
2022-08-03T12:18:27.002Z,104288.00
2022-08-03T12:19:26.974Z,103456.00
2022-08-03T12:20:31.289Z,103584.00
2022-08-03T12:21:27.945Z,107232.00
2022-08-03T12:22:31.983Z,100832.00
2022-08-03T12:23:26.927Z,100544.00
2022-08-03T12:24:27.047Z,101600.00
2022-08-03T12:25:38.741Z,102240.00
2022-08-03T12:26:27.900Z,100608.00
2022-08-03T12:27:27.001Z,101152.00
2022-08-03T12:28:31.822Z,105632.00
2022-08-03T12:29:27.877Z,104608.00
2022-08-03T12:30:26.905Z,102720.00
2022-08-03T12:31:26.862Z,100704.00
2022-08-03T12:32:26.849Z,96000.00
2022-08-03T12:33:31.874Z,96608.00
2022-08-03T12:34:27.258Z,98432.00
2022-08-03T12:35:26.829Z,100224.00
2022-08-03T12:36:26.822Z,73792.00
2022-08-03T12:37:26.787Z,19232.00
2022-08-03T12:38:26.794Z,2400.00
2022-08-03T12:39:26.771Z,2136.00
2022-08-03T12:40:28.321Z,2008.00
2022-08-03T12:41:26.754Z,1920.00
2022-08-03T12:42:26.765Z,1864.00
2022-08-03T12:43:26.806Z,1832.00
2022-08-03T12:44:32.773Z,1812.00
2022-08-03T12:45:26.785Z,1792.00
2022-08-03T12:46:26.731Z,1780.00
2022-08-03T12:47:26.698Z,1772.00
2022-08-03T12:48:27.742Z,1760.00
2022-08-03T12:49:26.766Z,1740.00
2022-08-03T12:50:26.719Z,1732.00
2022-08-03T12:51:26.738Z,1716.00
2022-08-03T12:52:26.686Z,1692.00
2022-08-03T12:53:26.666Z,1688.00
2022-08-03T12:54:26.656Z,1692.00
2022-08-03T12:55:31.667Z,1696.00
2022-08-03T12:56:27.889Z,1680.00
2022-08-03T12:57:26.597Z,1672.00
2022-08-03T12:58:26.597Z,1672.00
2022-08-03T12:59:35.018Z,1700.00
2022-08-03T13:00:29.332Z,1676.00
2022-08-03T13:01:26.641Z,1676.00
2022-08-03T13:02:26.666Z,1672.00
2022-08-03T13:03:39.469Z,1700.00
2022-08-03T13:04:27.562Z,1692.00
2022-08-03T13:05:26.519Z,1704.00
2022-08-03T13:06:31.548Z,1680.00
2022-08-03T13:07:26.572Z,1660.00
2022-08-03T13:08:26.526Z,1664.00
2022-08-03T13:09:26.576Z,1660.00
2022-08-03T13:10:26.483Z,1640.00
2022-08-03T13:11:53.476Z,1616.00
2022-08-03T13:12:27.517Z,1620.00
2022-08-03T13:13:26.454Z,1656.00
2022-08-03T13:14:26.434Z,1632.00
2022-08-03T13:15:26.435Z,1632.00
2022-08-03T13:16:27.404Z,1616.00
2022-08-03T13:17:31.418Z,1640.00
2022-08-03T13:18:26.404Z,1636.00
2022-08-03T13:19:26.393Z,1628.00
2022-08-03T13:20:26.478Z,1624.00
2022-08-03T13:21:26.376Z,1624.00
2022-08-03T13:22:26.356Z,1612.00
2022-08-03T13:23:26.328Z,1616.00
2022-08-03T13:24:26.317Z,1612.00
2022-08-03T13:25:26.303Z,1616.00
2022-08-03T13:26:26.307Z,1608.00
2022-08-03T13:28:04.322Z,1608.00
2022-08-03T13:28:27.278Z,1632.00
2022-08-03T13:29:26.295Z,1628.00
2022-08-03T13:30:31.290Z,1600.00
2022-08-03T13:31:26.300Z,1628.00
2022-08-03T13:32:26.272Z,1608.00
2022-08-03T13:33:26.304Z,1616.00
2022-08-03T13:34:26.201Z,1584.00
2022-08-03T13:35:26.189Z,1616.00
2022-08-03T13:36:26.221Z,1604.00
2022-08-03T13:37:26.633Z,1600.00
2022-08-03T13:38:27.139Z,1600.00
2022-08-03T13:39:32.349Z,1600.00
2022-08-03T13:40:30.330Z,1612.00
2022-08-03T13:41:31.049Z,1620.00
2022-08-03T13:42:27.165Z,1656.00
2022-08-03T13:43:31.148Z,1608.00
2022-08-03T13:44:29.819Z,1612.00
2022-08-03T13:45:26.112Z,1596.00
2022-08-03T13:46:26.080Z,1584.00
2022-08-03T13:47:26.086Z,1580.00
2022-08-03T13:48:36.765Z,1604.00
2022-08-03T13:49:27.140Z,1576.00
2022-08-03T13:50:26.045Z,1576.00
2022-08-03T13:51:27.001Z,1588.00
2022-08-03T13:52:26.046Z,1552.00
2022-08-03T13:53:26.023Z,1556.00
2022-08-03T13:54:26.009Z,1556.00
2022-08-03T13:55:26.000Z,1556.00
2022-08-03T13:56:31.002Z,1556.00
2022-08-03T13:58:02.972Z,1556.00
2022-08-03T13:58:27.006Z,1580.00
2022-08-03T13:59:25.941Z,1556.00
2022-08-03T14:00:27.344Z,1556.00
2022-08-03T14:01:54.184Z,1596.00
2022-08-03T14:02:26.973Z,1544.00
2022-08-03T14:03:25.904Z,1556.00
2022-08-03T14:04:25.897Z,1528.00
2022-08-03T14:05:25.899Z,1524.00
2022-08-03T14:06:25.905Z,1512.00
2022-08-03T14:07:25.931Z,1504.00
2022-08-03T14:08:25.868Z,1504.00
2022-08-03T14:09:31.041Z,1512.00
2022-08-03T14:10:25.910Z,1512.00
2022-08-03T14:11:25.841Z,1516.00
2022-08-03T14:12:26.824Z,1520.00
2022-08-03T14:13:25.802Z,1524.00
2022-08-03T14:14:25.788Z,1524.00
2022-08-03T14:15:25.783Z,1528.00
2022-08-03T14:16:25.799Z,1520.00
2022-08-03T14:17:25.785Z,1524.00
2022-08-03T14:18:28.346Z,1532.00
2022-08-03T14:19:26.751Z,1540.00
2022-08-03T14:20:36.292Z,1524.00
2022-08-03T14:21:26.758Z,1520.00
2022-08-03T14:22:30.758Z,1520.00
2022-08-03T14:23:25.724Z,1524.00
2022-08-03T14:24:25.705Z,1520.00
2022-08-03T14:25:25.673Z,1572.00
2022-08-03T14:26:25.667Z,1524.00
2022-08-03T14:27:25.737Z,1540.00
2022-08-03T14:28:25.730Z,1524.00
2022-08-03T14:29:25.643Z,1516.00
2022-08-03T14:30:25.616Z,1512.00
2022-08-03T14:32:09.833Z,1496.00
2022-08-03T14:32:26.666Z,1508.00
2022-08-03T14:33:25.683Z,1492.00
2022-08-03T14:34:25.577Z,1476.00
2022-08-03T14:35:30.601Z,1472.00
2022-08-03T14:36:25.613Z,1468.00
2022-08-03T14:37:25.589Z,1464.00
2022-08-03T14:38:25.592Z,1464.00
2022-08-03T14:39:25.770Z,1460.00
2022-08-03T14:40:25.555Z,1448.00
2022-08-03T14:41:25.515Z,1444.00
2022-08-03T14:42:25.515Z,1432.00
2022-08-03T14:43:25.560Z,1428.00
2022-08-03T14:44:26.478Z,1428.00
2022-08-03T14:45:25.609Z,1432.00
2022-08-03T14:46:25.524Z,1432.00
2022-08-03T14:47:25.499Z,1428.00
2022-08-03T14:50:34.938Z,1432.00
2022-08-03T14:50:36.927Z,1420.00
2022-08-03T14:50:38.880Z,1416.00
2022-08-03T14:51:26.408Z,1416.00
2022-08-03T14:52:26.399Z,1408.00
2022-08-03T14:53:25.426Z,1404.00
2022-08-03T14:54:25.403Z,1404.00
2022-08-03T14:55:25.363Z,1400.00
2022-08-03T14:56:26.380Z,1396.00
2022-08-03T14:57:25.384Z,1392.00
2022-08-03T14:58:25.386Z,1388.00
2022-08-03T14:59:25.343Z,1380.00
2022-08-03T15:00:25.396Z,1388.00
2022-08-03T15:02:06.230Z,1388.00
2022-08-03T15:02:26.384Z,1376.00
2022-08-03T15:03:25.339Z,1372.00
2022-08-03T15:04:25.387Z,1380.00
2022-08-03T15:05:25.258Z,1372.00
2022-08-03T15:06:25.273Z,1372.00
2022-08-03T15:07:25.244Z,1360.00
2022-08-03T15:08:25.249Z,1368.00
2022-08-03T15:09:25.210Z,1364.00
2022-08-03T15:10:30.637Z,1368.00
2022-08-03T15:11:26.189Z,1348.00
2022-08-03T15:12:25.230Z,1352.00
2022-08-03T15:13:25.199Z,1348.00
2022-08-03T15:14:33.225Z,1344.00
2022-08-03T15:15:25.308Z,1328.00
2022-08-03T15:16:25.161Z,1324.00
2022-08-03T15:17:25.134Z,1316.00
2022-08-03T15:18:25.142Z,1312.00
2022-08-03T15:20:03.242Z,1308.00
2022-08-03T15:20:42.447Z,1300.00
2022-08-03T15:21:46.771Z,1284.00
2022-08-03T15:22:35.039Z,1288.00
2022-08-03T15:23:26.103Z,1276.00
2022-08-03T15:24:25.053Z,1284.00
2022-08-03T15:26:28.727Z,1284.00
2022-08-03T15:26:32.781Z,1280.00
2022-08-03T15:27:31.083Z,1276.00
2022-08-03T15:28:25.100Z,1280.00
2022-08-03T15:30:07.434Z,1272.00
2022-08-03T15:30:26.036Z,1268.00
2022-08-03T15:31:25.032Z,1272.00
2022-08-03T15:32:24.966Z,1276.00
2022-08-03T15:33:24.969Z,1256.00
2022-08-03T15:34:24.975Z,1256.00
2022-08-03T15:35:24.938Z,1244.00
2022-08-03T15:36:24.925Z,1248.00
2022-08-03T15:37:25.059Z,1248.00
2022-08-03T15:38:25.761Z,1264.00
2022-08-03T15:39:24.931Z,1236.00
2022-08-03T15:40:29.905Z,1236.00
2022-08-03T15:41:24.897Z,1284.00
2022-08-03T15:42:24.935Z,1240.00
2022-08-03T15:43:24.869Z,1228.00
2022-08-03T15:44:24.851Z,1224.00
2022-08-03T15:45:24.840Z,1220.00
2022-08-03T15:46:29.621Z,1220.00
2022-08-03T15:47:25.815Z,1216.00
2022-08-03T15:48:26.496Z,1212.00
2022-08-03T15:49:24.800Z,1212.00
2022-08-03T15:50:24.781Z,1212.00
2022-08-03T15:51:24.773Z,1212.00
2022-08-03T15:52:24.790Z,1212.00
2022-08-03T15:53:29.868Z,1212.00
2022-08-03T15:54:24.778Z,1204.00
2022-08-03T15:55:24.774Z,1196.00
2022-08-03T15:56:24.718Z,1196.00
2022-08-03T15:57:24.710Z,1192.00
2022-08-03T15:59:07.604Z,1188.00
2022-08-03T15:59:25.712Z,1184.00
2022-08-03T16:00:33.414Z,1172.00
2022-08-03T16:01:25.740Z,1160.00
2022-08-03T16:02:24.705Z,1152.00
2022-08-03T16:03:24.817Z,1148.00
2022-08-03T16:04:24.638Z,1140.00
2022-08-03T16:05:24.644Z,1140.00
2022-08-03T16:06:36.045Z,1136.00